sensor_id;sensor_type;location;lat;lon;timestamp;pressure;altitude;pressure_sealevel;temperature;humidity
74433;BME280;62865;53.146;23.172;2023-06-14T00:01:56;1024.9;;;16.1;71
74433;BME280;62865;53.146;23.172;2023-06-14T00:06:42;1024.8;;;16.1;71.1
74433;BME280;62865;53.146;23.172;2023-06-14T00:11:52;1024.9;;;16.1;71.3
74433;BME280;62865;53.146;23.172;2023-06-14T00:17:06;1024.8;;;16;71.4
74433;BME280;62865;53.146;23.172;2023-06-14T00:22:06;1024.8;;;16;71.3
74433;BME280;62865;53.146;23.172;2023-06-14T00:27:24;1024.9;;;16;71.3
74433;BME280;62865;53.146;23.172;2023-06-14T00:31:42;1024.8;;;16;71.4
74433;BME280;62865;53.146;23.172;2023-06-14T00:36:52;1024.7;;;16;71.5
74433;BME280;62865;53.146;23.172;2023-06-14T00:41:52;1024.7;;;16;71.6
74433;BME280;62865;53.146;23.172;2023-06-14T00:47:08;1024.7;;;16;71.7
74433;BME280;62865;53.146;23.172;2023-06-14T00:51:48;1024.7;;;15.9;71.9
74433;BME280;62865;53.146;23.172;2023-06-14T00:56:56;1024.7;;;15.9;72.1
74433;BME280;62865;53.146;23.172;2023-06-14T01:02:00;1024.6;;;15.9;72.2
74433;BME280;62865;53.146;23.172;2023-06-14T01:06:44;1024.6;;;15.9;72.1
74433;BME280;62865;53.146;23.172;2023-06-14T01:12:09;1024.6;;;15.9;72.1
74433;BME280;62865;53.146;23.172;2023-06-14T01:16:42;1024.6;;;15.9;72.2
74433;BME280;62865;53.146;23.172;2023-06-14T01:21:58;1024.6;;;15.8;72.2
74433;BME280;62865;53.146;23.172;2023-06-14T01:26:42;1024.6;;;15.8;72.2
74433;BME280;62865;53.146;23.172;2023-06-14T01:31:42;1024.6;;;15.8;72.3
74433;BME280;62865;53.146;23.172;2023-06-14T01:37:10;1024.6;;;15.8;72.3
74433;BME280;62865;53.146;23.172;2023-06-14T01:42:10;1024.6;;;15.7;72.3
74433;BME280;62865;53.146;23.172;2023-06-14T01:47:24;1024.6;;;15.7;72.5
74433;BME280;62865;53.146;23.172;2023-06-14T01:52:14;1024.6;;;15.7;72.4
74433;BME280;62865;53.146;23.172;2023-06-14T01:57:24;1024.5;;;15.8;72.2
74433;BME280;62865;53.146;23.172;2023-06-14T02:02:30;1024.6;;;15.8;72.1
74433;BME280;62865;53.146;23.172;2023-06-14T02:06:58;1024.6;;;15.9;72
74433;BME280;62865;53.146;23.172;2023-06-14T02:12:08;1024.6;;;16;71.7
74433;BME280;62865;53.146;23.172;2023-06-14T02:16:56;1024.6;;;16;71.6
74433;BME280;62865;53.146;23.172;2023-06-14T02:21:56;1024.5;;;16;71.6
74433;BME280;62865;53.146;23.172;2023-06-14T02:26:52;1024.5;;;16;71.5
74433;BME280;62865;53.146;23.172;2023-06-14T02:31:42;1024.5;;;15.9;71.8
74433;BME280;62865;53.146;23.172;2023-06-14T02:37:06;1024.5;;;15.9;71.8
74433;BME280;62865;53.146;23.172;2023-06-14T02:41:52;1024.5;;;16;71.5
74433;BME280;62865;53.146;23.172;2023-06-14T02:47:08;1024.5;;;16.1;71.3
74433;BME280;62865;53.146;23.172;2023-06-14T02:51:42;1024.5;;;16;71.5
74433;BME280;62865;53.146;23.172;2023-06-14T02:57:30;1024.4;;;16;71.6
74433;BME280;62865;53.146;23.172;2023-06-14T03:01:58;1024.4;;;16;71.4
74433;BME280;62865;53.146;23.172;2023-06-14T03:07:08;1024.5;;;16.1;71.1
74433;BME280;62865;53.146;23.172;2023-06-14T03:11:42;1024.5;;;16.2;70.8
74433;BME280;62865;53.146;23.172;2023-06-14T03:16:42;1024.5;;;16.3;70.5
74433;BME280;62865;53.146;23.172;2023-06-14T03:21:48;1024.5;;;16.4;69.9
74433;BME280;62865;53.146;23.172;2023-06-14T03:26:42;1024.5;;;16.6;69.5
74433;BME280;62865;53.146;23.172;2023-06-14T03:32:30;1024.5;;;16.6;68.9
74433;BME280;62865;53.146;23.172;2023-06-14T03:36:42;1024.5;;;16.7;68.9
74433;BME280;62865;53.146;23.172;2023-06-14T03:41:52;1024.5;;;16.7;68.8
74433;BME280;62865;53.146;23.172;2023-06-14T03:46:52;1024.6;;;16.7;68.6
74433;BME280;62865;53.146;23.172;2023-06-14T03:51:42;1024.6;;;16.8;68.3
74433;BME280;62865;53.146;23.172;2023-06-14T03:56:56;1024.6;;;16.9;67.9
74433;BME280;62865;53.146;23.172;2023-06-14T04:01:56;1024.6;;;17.1;67.1
74433;BME280;62865;53.146;23.172;2023-06-14T04:06:58;1024.6;;;17.4;66.4
74433;BME280;62865;53.146;23.172;2023-06-14T04:12:08;1024.6;;;17.6;65.6
74433;BME280;62865;53.146;23.172;2023-06-14T04:17:06;1024.6;;;17.8;64.8
74433;BME280;62865;53.146;23.172;2023-06-14T04:21:52;1024.6;;;18;64.4
74433;BME280;62865;53.146;23.172;2023-06-14T04:26:42;1024.6;;;18;63.7
74433;BME280;62865;53.146;23.172;2023-06-14T04:32:08;1024.6;;;18.1;63.2
74433;BME280;62865;53.146;23.172;2023-06-14T04:36:42;1024.6;;;18.1;62.2
74433;BME280;62865;53.146;23.172;2023-06-14T04:41:42;1024.6;;;18.1;61.4
74433;BME280;62865;53.146;23.172;2023-06-14T04:46:52;1024.6;;;18.2;60.6
74433;BME280;62865;53.146;23.172;2023-06-14T04:52:08;1024.6;;;18.4;60
74433;BME280;62865;53.146;23.172;2023-06-14T04:56:56;1024.6;;;18.6;59.2
74433;BME280;62865;53.146;23.172;2023-06-14T05:01:56;1024.6;;;18.8;58.4
74433;BME280;62865;53.146;23.172;2023-06-14T05:07:14;1024.6;;;18.9;57.4
74433;BME280;62865;53.146;23.172;2023-06-14T05:12:08;1024.7;;;19;57
74433;BME280;62865;53.146;23.172;2023-06-14T05:17:06;1024.7;;;19;57.2
74433;BME280;62865;53.146;23.172;2023-06-14T05:21:58;1024.7;;;18.9;57.7
74433;BME280;62865;53.146;23.172;2023-06-14T05:27:24;1024.8;;;18.9;58.1
74433;BME280;62865;53.146;23.172;2023-06-14T05:32:08;1024.8;;;18.9;58.3
74433;BME280;62865;53.146;23.172;2023-06-14T05:37:06;1024.9;;;18.6;59.7
74433;BME280;62865;53.146;23.172;2023-06-14T05:41:56;1024.9;;;18.4;60.2
74433;BME280;62865;53.146;23.172;2023-06-14T05:47:08;1024.9;;;18.3;61.1
74433;BME280;62865;53.146;23.172;2023-06-14T05:51:42;1025;;;18.2;61.7
74433;BME280;62865;53.146;23.172;2023-06-14T05:57:08;1025;;;18.1;61.9
74433;BME280;62865;53.146;23.172;2023-06-14T06:01:58;1025;;;18.1;63.2
74433;BME280;62865;53.146;23.172;2023-06-14T06:07:20;1025.1;;;18.1;62.7
74433;BME280;62865;53.146;23.172;2023-06-14T06:11:42;1025.1;;;17.9;63.4
74433;BME280;62865;53.146;23.172;2023-06-14T06:16:42;1025.2;;;17.8;64
74433;BME280;62865;53.146;23.172;2023-06-14T06:21:42;1025.3;;;17.7;64.5
74433;BME280;62865;53.146;23.172;2023-06-14T06:26:42;1025.3;;;17.6;65
74433;BME280;62865;53.146;23.172;2023-06-14T06:32:10;1025.3;;;17.6;64.8
74433;BME280;62865;53.146;23.172;2023-06-14T06:36:56;1025.3;;;17.5;65.2
74433;BME280;62865;53.146;23.172;2023-06-14T06:41:42;1025.3;;;17.6;65
74433;BME280;62865;53.146;23.172;2023-06-14T06:46:43;1025.3;;;17.8;64.4
74433;BME280;62865;53.146;23.172;2023-06-14T06:51:42;1025.4;;;18;64
74433;BME280;62865;53.146;23.172;2023-06-14T06:57:08;1025.4;;;18;63.4
74433;BME280;62865;53.146;23.172;2023-06-14T07:01:42;1025.4;;;18;63.1
74433;BME280;62865;53.146;23.172;2023-06-14T07:06:42;1025.5;;;17.9;63.1
74433;BME280;62865;53.146;23.172;2023-06-14T07:12:08;1025.5;;;17.8;64.3
74433;BME280;62865;53.146;23.172;2023-06-14T07:16:56;1025.6;;;17.7;63.9
74433;BME280;62865;53.146;23.172;2023-06-14T07:21:48;1025.6;;;17.6;64
74433;BME280;62865;53.146;23.172;2023-06-14T07:27:10;1025.6;;;17.6;63.1
74433;BME280;62865;53.146;23.172;2023-06-14T07:32:32;1025.6;;;17.8;61.4
74433;BME280;62865;53.146;23.172;2023-06-14T07:37:32;1025.6;;;17.9;60.2
74433;BME280;62865;53.146;23.172;2023-06-14T07:41:54;1025.6;;;18.1;60
74433;BME280;62865;53.146;23.172;2023-06-14T07:47:32;1025.6;;;18.5;60.4
74433;BME280;62865;53.146;23.172;2023-06-14T07:52:26;1025.7;;;18.9;59.5
74433;BME280;62865;53.146;23.172;2023-06-14T07:57:30;1025.7;;;19.3;58.3
74433;BME280;62865;53.146;23.172;2023-06-14T08:01:42;1025.7;;;19.9;57
74433;BME280;62865;53.146;23.172;2023-06-14T08:07:32;1025.7;;;20.4;54.6
74433;BME280;62865;53.146;23.172;2023-06-14T08:12:26;1025.6;;;20.7;54.4
74433;BME280;62865;53.146;23.172;2023-06-14T08:17:20;1025.6;;;21.1;53.2
74433;BME280;62865;53.146;23.172;2023-06-14T08:22:24;1025.5;;;21.5;51.7
74433;BME280;62865;53.146;23.172;2023-06-14T08:27:26;1025.5;;;21.6;51.3
74433;BME280;62865;53.146;23.172;2023-06-14T08:32:24;1025.4;;;21.7;50.6
74433;BME280;62865;53.146;23.172;2023-06-14T08:37:30;1025.4;;;21.4;50.2
74433;BME280;62865;53.146;23.172;2023-06-14T08:41:42;1025.4;;;21.6;49.6
74433;BME280;62865;53.146;23.172;2023-06-14T08:47:30;1025.4;;;22;48.5
74433;BME280;62865;53.146;23.172;2023-06-14T08:52:26;1025.3;;;22.5;47.2
74433;BME280;62865;53.146;23.172;2023-06-14T08:57:30;1025.3;;;22.8;45.4
74433;BME280;62865;53.146;23.172;2023-06-14T09:01:44;1025.3;;;22.6;45.6
74433;BME280;62865;53.146;23.172;2023-06-14T09:07:32;1025.3;;;23;45.1
74433;BME280;62865;53.146;23.172;2023-06-14T09:12:26;1025.2;;;23.2;44.4
74433;BME280;62865;53.146;23.172;2023-06-14T09:17:32;1025.2;;;23.6;43.5
74433;BME280;62865;53.146;23.172;2023-06-14T09:22:24;1025.1;;;23.9;42
74433;BME280;62865;53.146;23.172;2023-06-14T09:27:34;1025.1;;;23.7;42.1
74433;BME280;62865;53.146;23.172;2023-06-14T09:32:26;1025;;;23.8;42
74433;BME280;62865;53.146;23.172;2023-06-14T09:37:32;1025;;;24.1;41.1
74433;BME280;62865;53.146;23.172;2023-06-14T09:41:56;1024.9;;;24.3;40.2
74433;BME280;62865;53.146;23.172;2023-06-14T09:47:32;1024.9;;;24.6;39.2
74433;BME280;62865;53.146;23.172;2023-06-14T09:52:26;1024.9;;;24.7;37.7
74433;BME280;62865;53.146;23.172;2023-06-14T09:57:32;1025;;;25;37.4
74433;BME280;62865;53.146;23.172;2023-06-14T10:02:10;1025;;;25.2;36.9
74433;BME280;62865;53.146;23.172;2023-06-14T10:07:31;1025;;;25.2;36.5
74433;BME280;62865;53.146;23.172;2023-06-14T10:12:26;1025;;;25.1;36.9
74433;BME280;62865;53.146;23.172;2023-06-14T10:17:35;1024.9;;;25.1;37
74433;BME280;62865;53.146;23.172;2023-06-14T10:21:46;1024.9;;;25.2;37.4
74433;BME280;62865;53.146;23.172;2023-06-14T10:27:34;1024.9;;;25.3;37.6
74433;BME280;62865;53.146;23.172;2023-06-14T10:32:27;1024.9;;;25.2;37.8
74433;BME280;62865;53.146;23.172;2023-06-14T10:37:32;1024.8;;;25.1;37.6
74433;BME280;62865;53.146;23.172;2023-06-14T10:41:55;1024.7;;;25.4;37.2
74433;BME280;62865;53.146;23.172;2023-06-14T10:47:33;1024.7;;;25.8;36.6
74433;BME280;62865;53.146;23.172;2023-06-14T10:52:27;1024.7;;;25.9;36.8
74433;BME280;62865;53.146;23.172;2023-06-14T10:57:33;1024.7;;;25.6;37.3
74433;BME280;62865;53.146;23.172;2023-06-14T11:01:47;1024.7;;;25.4;37.7
74433;BME280;62865;53.146;23.172;2023-06-14T11:07:40;1024.7;;;25.3;37.9
74433;BME280;62865;53.146;23.172;2023-06-14T11:12:26;1024.8;;;25.1;38
74433;BME280;62865;53.146;23.172;2023-06-14T11:17:34;1024.8;;;24.9;38.3
74433;BME280;62865;53.146;23.172;2023-06-14T11:21:47;1024.8;;;24.6;38.7
74433;BME280;62865;53.146;23.172;2023-06-14T11:27:36;1024.8;;;24.6;38.8
74433;BME280;62865;53.146;23.172;2023-06-14T11:32:30;1024.7;;;24.5;38.8
74433;BME280;62865;53.146;23.172;2023-06-14T11:37:36;1024.6;;;24.7;38.6
74433;BME280;62865;53.146;23.172;2023-06-14T11:41:58;1024.6;;;24.8;38
74433;BME280;62865;53.146;23.172;2023-06-14T11:47:37;1024.6;;;24.6;38
74433;BME280;62865;53.146;23.172;2023-06-14T11:52:28;1024.6;;;24.3;38.5
74433;BME280;62865;53.146;23.172;2023-06-14T11:57:36;1024.6;;;24.1;39
74433;BME280;62865;53.146;23.172;2023-06-14T12:02:28;1024.6;;;23.7;39.7
74433;BME280;62865;53.146;23.172;2023-06-14T12:07:34;1024.6;;;23.6;39.3
74433;BME280;62865;53.146;23.172;2023-06-14T12:12:28;1024.6;;;23.8;39.1
74433;BME280;62865;53.146;23.172;2023-06-14T12:17:37;1024.6;;;24.1;39.1
74433;BME280;62865;53.146;23.172;2023-06-14T12:21:56;1024.6;;;24.2;39.1
74433;BME280;62865;53.146;23.172;2023-06-14T12:27:39;1024.6;;;24.2;38.5
74433;BME280;62865;53.146;23.172;2023-06-14T12:32:26;1024.5;;;24.3;38.1
74433;BME280;62865;53.146;23.172;2023-06-14T12:37:02;1024.5;;;24.4;37.8
74433;BME280;62865;53.146;23.172;2023-06-14T12:41:56;1024.5;;;24.4;37.9
74433;BME280;62865;53.146;23.172;2023-06-14T12:47:32;1024.6;;;24.2;38.1
74433;BME280;62865;53.146;23.172;2023-06-14T12:52:28;1024.6;;;24.1;38.3
74433;BME280;62865;53.146;23.172;2023-06-14T12:57:35;1024.5;;;24.1;38.6
74433;BME280;62865;53.146;23.172;2023-06-14T13:01:44;1024.4;;;24.1;38.8
74433;BME280;62865;53.146;23.172;2023-06-14T13:07:34;1024.4;;;23.9;38.9
74433;BME280;62865;53.146;23.172;2023-06-14T13:12:27;1024.4;;;24.1;38.6
74433;BME280;62865;53.146;23.172;2023-06-14T13:17:18;1024.4;;;24.3;38.5
74433;BME280;62865;53.146;23.172;2023-06-14T13:22:28;1024.4;;;24.2;38.7
74433;BME280;62865;53.146;23.172;2023-06-14T13:27:34;1024.4;;;24.4;38.3
74433;BME280;62865;53.146;23.172;2023-06-14T13:32:26;1024.3;;;24.9;37.8
74433;BME280;62865;53.146;23.172;2023-06-14T13:37:16;1024.3;;;25.2;37
74433;BME280;62865;53.146;23.172;2023-06-14T13:42:18;1024.2;;;25.2;36.8
74433;BME280;62865;53.146;23.172;2023-06-14T13:47:34;1024.2;;;25.3;36.8
74433;BME280;62865;53.146;23.172;2023-06-14T13:51:58;1024.2;;;25.5;35.9
74433;BME280;62865;53.146;23.172;2023-06-14T13:57:19;1024.2;;;25.3;36
74433;BME280;62865;53.146;23.172;2023-06-14T14:01:44;1024.2;;;25.3;36
74433;BME280;62865;53.146;23.172;2023-06-14T14:07:36;1024.2;;;25.6;35.8
74433;BME280;62865;53.146;23.172;2023-06-14T14:12:28;1024.2;;;25.7;35.4
74433;BME280;62865;53.146;23.172;2023-06-14T14:17:16;1024.1;;;25.5;35.6
74433;BME280;62865;53.146;23.172;2023-06-14T14:22:10;1024.2;;;25.4;35.9
74433;BME280;62865;53.146;23.172;2023-06-14T14:27:22;1024.2;;;25.4;36.1
74433;BME280;62865;53.146;23.172;2023-06-14T14:32:28;1024.2;;;25.4;36.1
74433;BME280;62865;53.146;23.172;2023-06-14T14:37:16;1024.2;;;25.3;35.9
74433;BME280;62865;53.146;23.172;2023-06-14T14:41:58;1024.1;;;25.2;36.4
74433;BME280;62865;53.146;23.172;2023-06-14T14:47:28;1024.2;;;25.1;36.4
74433;BME280;62865;53.146;23.172;2023-06-14T14:52:28;1024.1;;;24.9;36.6
74433;BME280;62865;53.146;23.172;2023-06-14T14:57:16;1024.1;;;24.9;36.8
74433;BME280;62865;53.146;23.172;2023-06-14T15:01:44;1024;;;25.1;36.6
74433;BME280;62865;53.146;23.172;2023-06-14T15:07:21;1024;;;25.2;36.5
74433;BME280;62865;53.146;23.172;2023-06-14T15:12:00;1024;;;24.9;37
74433;BME280;62865;53.146;23.172;2023-06-14T15:17:14;1023.9;;;25.1;36.7
74433;BME280;62865;53.146;23.172;2023-06-14T15:21:56;1023.8;;;25.3;36.4
74433;BME280;62865;53.146;23.172;2023-06-14T15:27:32;1023.8;;;25.4;36.5
74433;BME280;62865;53.146;23.172;2023-06-14T15:32:14;1023.8;;;25.7;35.6
74433;BME280;62865;53.146;23.172;2023-06-14T15:37:18;1023.7;;;25.9;35.9
74433;BME280;62865;53.146;23.172;2023-06-14T15:41:56;1023.7;;;25.8;35.9
74433;BME280;62865;53.146;23.172;2023-06-14T15:47:37;1023.7;;;25.8;35.9
74433;BME280;62865;53.146;23.172;2023-06-14T15:52:37;1023.7;;;25.9;35.4
74433;BME280;62865;53.146;23.172;2023-06-14T15:57:18;1023.7;;;26.1;35.7
74433;BME280;62865;53.146;23.172;2023-06-14T16:01:44;1023.6;;;26.6;35.2
74433;BME280;62865;53.146;23.172;2023-06-14T16:07:34;1023.6;;;27.4;34.2
74433;BME280;62865;53.146;23.172;2023-06-14T16:12:17;1023.6;;;27.2;34.1
74433;BME280;62865;53.146;23.172;2023-06-14T16:17:15;1023.6;;;26.9;34.2
74433;BME280;62865;53.146;23.172;2023-06-14T16:21:56;1023.6;;;26.7;34.5
74433;BME280;62865;53.146;23.172;2023-06-14T16:27:35;1023.6;;;26.8;34.5
74433;BME280;62865;53.146;23.172;2023-06-14T16:32:14;1023.6;;;26.9;34.4
74433;BME280;62865;53.146;23.172;2023-06-14T16:37:15;1023.6;;;26.6;34.7
74433;BME280;62865;53.146;23.172;2023-06-14T16:41:44;1023.6;;;26.2;35.4
74433;BME280;62865;53.146;23.172;2023-06-14T16:47:34;1023.6;;;25.6;36.4
74433;BME280;62865;53.146;23.172;2023-06-14T16:52:17;1023.6;;;25.1;37.1
74433;BME280;62865;53.146;23.172;2023-06-14T16:57:17;1023.7;;;24.5;38.1
74433;BME280;62865;53.146;23.172;2023-06-14T17:02:00;1023.6;;;24;39.2
74433;BME280;62865;53.146;23.172;2023-06-14T17:07:35;1023.6;;;23.6;40
74433;BME280;62865;53.146;23.172;2023-06-14T17:12:17;1023.6;;;23.4;40.3
74433;BME280;62865;53.146;23.172;2023-06-14T17:17:17;1023.6;;;23.3;40.7
74433;BME280;62865;53.146;23.172;2023-06-14T17:21:45;1023.6;;;23.1;41.1
74433;BME280;62865;53.146;23.172;2023-06-14T17:27:29;1023.6;;;22.9;41.6
74433;BME280;62865;53.146;23.172;2023-06-14T17:32:15;1023.7;;;22.7;42
74433;BME280;62865;53.146;23.172;2023-06-14T17:37:33;1023.7;;;22.6;42.4
74433;BME280;62865;53.146;23.172;2023-06-14T17:41:57;1023.7;;;22.6;42.5
74433;BME280;62865;53.146;23.172;2023-06-14T17:47:27;1023.7;;;22.4;42.9
74433;BME280;62865;53.146;23.172;2023-06-14T17:52:31;1023.7;;;22.3;43.2
74433;BME280;62865;53.146;23.172;2023-06-14T17:57:33;1023.7;;;22.2;43.5
74433;BME280;62865;53.146;23.172;2023-06-14T18:01:57;1023.8;;;22.2;43.7
74433;BME280;62865;53.146;23.172;2023-06-14T18:07:29;1023.8;;;22;44.1
74433;BME280;62865;53.146;23.172;2023-06-14T18:12:03;1023.8;;;21.9;44.6
74433;BME280;62865;53.146;23.172;2023-06-14T18:17:35;1023.8;;;21.8;45.1
74433;BME280;62865;53.146;23.172;2023-06-14T18:22:11;1023.7;;;21.7;45.2
74433;BME280;62865;53.146;23.172;2023-06-14T18:27:29;1023.7;;;21.6;45.5
74433;BME280;62865;53.146;23.172;2023-06-14T18:32:20;1023.8;;;21.6;45.7
74433;BME280;62865;53.146;23.172;2023-06-14T18:37:39;1023.8;;;21.6;45.9
74433;BME280;62865;53.146;23.172;2023-06-14T18:42:11;1023.8;;;21.6;45.7
74433;BME280;62865;53.146;23.172;2023-06-14T18:47:29;1023.9;;;21.6;45.8
74433;BME280;62865;53.146;23.172;2023-06-14T18:52:21;1023.9;;;21.6;46
74433;BME280;62865;53.146;23.172;2023-06-14T18:57:39;1023.9;;;21.4;46.6
74433;BME280;62865;53.146;23.172;2023-06-14T19:01:57;1023.9;;;21.2;47.1
74433;BME280;62865;53.146;23.172;2023-06-14T19:07:27;1024;;;21.1;47.8
74433;BME280;62865;53.146;23.172;2023-06-14T19:12:17;1024;;;20.9;48.3
74433;BME280;62865;53.146;23.172;2023-06-14T19:17:35;1024;;;20.9;48.8
74433;BME280;62865;53.146;23.172;2023-06-14T19:21:57;1024;;;20.8;49.5
74433;BME280;62865;53.146;23.172;2023-06-14T19:27:27;1024.1;;;20.6;50.3
74433;BME280;62865;53.146;23.172;2023-06-14T19:32:19;1024.1;;;20.5;51
74433;BME280;62865;53.146;23.172;2023-06-14T19:37:35;1024.1;;;20.5;51.2
74433;BME280;62865;53.146;23.172;2023-06-14T19:41:57;1024.1;;;20.4;51.9
74433;BME280;62865;53.146;23.172;2023-06-14T19:47:35;1024.1;;;20.3;52.8
74433;BME280;62865;53.146;23.172;2023-06-14T19:52:35;1024.1;;;20.2;53.7
74433;BME280;62865;53.146;23.172;2023-06-14T19:57:35;1024.1;;;20.1;54.2
74433;BME280;62865;53.146;23.172;2023-06-14T20:01:45;1024.1;;;20.1;54.5
74433;BME280;62865;53.146;23.172;2023-06-14T20:07:27;1024.1;;;20;55.1
74433;BME280;62865;53.146;23.172;2023-06-14T20:12:19;1024.2;;;20;55.1
74433;BME280;62865;53.146;23.172;2023-06-14T20:17:35;1024.2;;;20;55.3
74433;BME280;62865;53.146;23.172;2023-06-14T20:22:35;1024.2;;;20;55.5
74433;BME280;62865;53.146;23.172;2023-06-14T20:27:27;1024.2;;;19.9;55.7
74433;BME280;62865;53.146;23.172;2023-06-14T20:32:19;1024.2;;;20;55.6
74433;BME280;62865;53.146;23.172;2023-06-14T20:37:35;1024.2;;;19.9;55.8
74433;BME280;62865;53.146;23.172;2023-06-14T20:42:19;1024.2;;;19.9;55.9
74433;BME280;62865;53.146;23.172;2023-06-14T20:47:27;1024.2;;;19.9;55.7
74433;BME280;62865;53.146;23.172;2023-06-14T20:52:19;1024.2;;;19.9;55.7
74433;BME280;62865;53.146;23.172;2023-06-14T20:57:35;1024.2;;;20;55.6
74433;BME280;62865;53.146;23.172;2023-06-14T21:01:57;1024.2;;;20;55.6
74433;BME280;62865;53.146;23.172;2023-06-14T21:07:15;1024.2;;;20;55.8
74433;BME280;62865;53.146;23.172;2023-06-14T21:12:17;1024.2;;;20;55.9
74433;BME280;62865;53.146;23.172;2023-06-14T21:17:35;1024.2;;;19.9;56.2
74433;BME280;62865;53.146;23.172;2023-06-14T21:21:57;1024.2;;;19.9;56.5
74433;BME280;62865;53.146;23.172;2023-06-14T21:27:27;1024.1;;;19.9;56.5
74433;BME280;62865;53.146;23.172;2023-06-14T21:32:19;1024.1;;;19.9;56.6
74433;BME280;62865;53.146;23.172;2023-06-14T21:37:33;1024.1;;;19.9;56.7
74433;BME280;62865;53.146;23.172;2023-06-14T21:41:59;1024;;;19.9;57.1
74433;BME280;62865;53.146;23.172;2023-06-14T21:47:33;1024;;;19.8;57.2
74433;BME280;62865;53.146;23.172;2023-06-14T21:52:15;1024.1;;;19.8;57.3
74433;BME280;62865;53.146;23.172;2023-06-14T21:57:33;1024;;;19.9;57.4
74433;BME280;62865;53.146;23.172;2023-06-14T22:01:45;1024;;;19.9;57.5
74433;BME280;62865;53.146;23.172;2023-06-14T22:07:33;1024;;;19.9;57.4
74433;BME280;62865;53.146;23.172;2023-06-14T22:12:17;1024;;;19.8;57.4
74433;BME280;62865;53.146;23.172;2023-06-14T22:17:33;1024;;;19.6;57.7
74433;BME280;62865;53.146;23.172;2023-06-14T22:22:09;1024;;;19.5;58.1
74433;BME280;62865;53.146;23.172;2023-06-14T22:27:31;1024;;;19.3;58.7
74433;BME280;62865;53.146;23.172;2023-06-14T22:32:17;1024;;;19.3;59
74433;BME280;62865;53.146;23.172;2023-06-14T22:37:33;1023.9;;;19.3;59.3
74433;BME280;62865;53.146;23.172;2023-06-14T22:41:45;1024;;;19.1;60.4
74433;BME280;62865;53.146;23.172;2023-06-14T22:47:33;1023.9;;;18.9;60.7
74433;BME280;62865;53.146;23.172;2023-06-14T22:52:17;1023.9;;;18.8;61
74433;BME280;62865;53.146;23.172;2023-06-14T22:57:33;1023.9;;;18.7;61.3
74433;BME280;62865;53.146;23.172;2023-06-14T23:02:09;1024;;;18.5;61.7
74433;BME280;62865;53.146;23.172;2023-06-14T23:07:27;1024;;;18.4;62.1
74433;BME280;62865;53.146;23.172;2023-06-14T23:12:15;1024;;;18.3;62.4
74433;BME280;62865;53.146;23.172;2023-06-14T23:17:31;1024;;;18.3;62.4
74433;BME280;62865;53.146;23.172;2023-06-14T23:21:55;1024;;;18.3;62.7
74433;BME280;62865;53.146;23.172;2023-06-14T23:27:15;1024.1;;;18.2;62.9
74433;BME280;62865;53.146;23.172;2023-06-14T23:32:17;1024.1;;;18.3;63.1
74433;BME280;62865;53.146;23.172;2023-06-14T23:36:47;1024;;;18.3;63.2
74433;BME280;62865;53.146;23.172;2023-06-14T23:41:55;1023.9;;;18.4;63
74433;BME280;62865;53.146;23.172;2023-06-14T23:47:33;1023.9;;;18.5;62.7
74433;BME280;62865;53.146;23.172;2023-06-14T23:52:17;1024;;;18.6;62.4
74433;BME280;62865;53.146;23.172;2023-06-14T23:57:33;1024;;;18.7;62.1
